sensor_id;sensor_type;location;lat;lon;timestamp;pressure;altitude;pressure_sealevel;temperature;humidity
75650;BME280;64245;51.282;22.494;2023-04-15T00:00:40;98316.28;;;8.18;98.55
75650;BME280;64245;51.282;22.494;2023-04-15T00:03:14;98308.53;;;8.15;99.28
75650;BME280;64245;51.282;22.494;2023-04-15T00:05:39;98320.25;;;8.14;99.79
75650;BME280;64245;51.282;22.494;2023-04-15T00:08:05;98311.69;;;8.11;99.23
75650;BME280;64245;51.282;22.494;2023-04-15T00:10:31;98311.91;;;8.17;99.76
75650;BME280;64245;51.282;22.494;2023-04-15T00:12:57;98310.22;;;8.16;100.00
75650;BME280;64245;51.282;22.494;2023-04-15T00:15:23;98308.09;;;8.20;99.49
75650;BME280;64245;51.282;22.494;2023-04-15T00:17:49;98308.41;;;8.17;99.05
75650;BME280;64245;51.282;22.494;2023-04-15T00:20:16;98312.47;;;8.21;100.00
75650;BME280;64245;51.282;22.494;2023-04-15T00:22:42;98307.25;;;8.19;99.76
75650;BME280;64245;51.282;22.494;2023-04-15T00:25:07;98321.88;;;8.07;100.00
75650;BME280;64245;51.282;22.494;2023-04-15T00:27:34;98312.31;;;8.22;99.89
75650;BME280;64245;51.282;22.494;2023-04-15T00:29:59;98325.31;;;8.17;100.00
75650;BME280;64245;51.282;22.494;2023-04-15T00:32:25;98309.53;;;8.14;100.00
75650;BME280;64245;51.282;22.494;2023-04-15T00:34:50;98291.91;;;7.94;100.00
75650;BME280;64245;51.282;22.494;2023-04-15T00:37:17;98306.41;;;8.01;100.00
75650;BME280;64245;51.282;22.494;2023-04-15T00:39:42;98315.00;;;8.05;100.00
75650;BME280;64245;51.282;22.494;2023-04-15T00:42:09;98305.31;;;7.94;100.00
75650;BME280;64245;51.282;22.494;2023-04-15T00:44:34;98299.81;;;7.95;100.00
75650;BME280;64245;51.282;22.494;2023-04-15T00:47:00;98310.38;;;7.97;100.00
75650;BME280;64245;51.282;22.494;2023-04-15T00:49:29;98313.06;;;7.97;100.00
75650;BME280;64245;51.282;22.494;2023-04-15T00:51:55;98300.50;;;7.97;100.00
75650;BME280;64245;51.282;22.494;2023-04-15T00:54:21;98306.69;;;7.98;100.00
75650;BME280;64245;51.282;22.494;2023-04-15T00:56:47;98311.97;;;7.90;100.00
75650;BME280;64245;51.282;22.494;2023-04-15T00:59:13;98317.03;;;7.93;100.00
75650;BME280;64245;51.282;22.494;2023-04-15T01:01:39;98311.91;;;8.00;100.00
75650;BME280;64245;51.282;22.494;2023-04-15T01:04:06;98305.00;;;7.97;100.00
75650;BME280;64245;51.282;22.494;2023-04-15T01:06:32;98316.19;;;7.92;100.00
75650;BME280;64245;51.282;22.494;2023-04-15T01:08:59;98304.09;;;7.88;100.00
75650;BME280;64245;51.282;22.494;2023-04-15T01:11:25;98307.16;;;7.93;100.00
75650;BME280;64245;51.282;22.494;2023-04-15T01:13:52;98310.38;;;7.97;100.00
75650;BME280;64245;51.282;22.494;2023-04-15T01:16:19;98314.50;;;7.91;100.00
75650;BME280;64245;51.282;22.494;2023-04-15T01:18:44;98312.50;;;7.93;100.00
75650;BME280;64245;51.282;22.494;2023-04-15T01:21:11;98311.13;;;7.89;100.00
75650;BME280;64245;51.282;22.494;2023-04-15T01:23:37;98307.31;;;7.92;100.00
75650;BME280;64245;51.282;22.494;2023-04-15T01:26:04;98303.09;;;7.89;100.00
75650;BME280;64245;51.282;22.494;2023-04-15T01:28:31;98302.72;;;7.84;100.00
75650;BME280;64245;51.282;22.494;2023-04-15T01:33:33;98295.88;;;7.90;100.00
75650;BME280;64245;51.282;22.494;2023-04-15T01:35:59;98287.31;;;7.86;100.00
75650;BME280;64245;51.282;22.494;2023-04-15T01:38:25;98294.38;;;7.87;100.00
75650;BME280;64245;51.282;22.494;2023-04-15T01:40:51;98291.31;;;7.82;100.00
75650;BME280;64245;51.282;22.494;2023-04-15T01:43:17;98296.06;;;7.88;100.00
75650;BME280;64245;51.282;22.494;2023-04-15T01:45:45;98302.25;;;7.89;100.00
75650;BME280;64245;51.282;22.494;2023-04-15T01:48:11;98298.41;;;7.91;100.00
75650;BME280;64245;51.282;22.494;2023-04-15T01:50:37;98293.28;;;7.80;100.00
75650;BME280;64245;51.282;22.494;2023-04-15T01:53:03;98292.75;;;7.77;100.00
75650;BME280;64245;51.282;22.494;2023-04-15T01:55:29;98304.56;;;7.84;100.00
75650;BME280;64245;51.282;22.494;2023-04-15T01:57:55;98313.06;;;7.97;100.00
75650;BME280;64245;51.282;22.494;2023-04-15T02:00:22;98306.78;;;7.88;100.00
75650;BME280;64245;51.282;22.494;2023-04-15T02:02:48;98302.41;;;7.87;100.00
75650;BME280;64245;51.282;22.494;2023-04-15T02:05:14;98308.28;;;7.91;100.00
75650;BME280;64245;51.282;22.494;2023-04-15T02:07:41;98308.78;;;7.86;100.00
75650;BME280;64245;51.282;22.494;2023-04-15T02:10:08;98303.63;;;7.93;100.00
75650;BME280;64245;51.282;22.494;2023-04-15T02:12:35;98298.34;;;7.83;100.00
75650;BME280;64245;51.282;22.494;2023-04-15T02:15:00;98292.59;;;7.96;100.00
75650;BME280;64245;51.282;22.494;2023-04-15T02:17:26;98298.41;;;7.91;100.00
75650;BME280;64245;51.282;22.494;2023-04-15T02:19:52;98293.28;;;7.80;100.00
75650;BME280;64245;51.282;22.494;2023-04-15T02:22:19;98285.56;;;7.95;100.00
75650;BME280;64245;51.282;22.494;2023-04-15T02:24:45;98301.34;;;7.98;100.00
75650;BME280;64245;51.282;22.494;2023-04-15T02:27:15;98302.19;;;7.98;100.00
75650;BME280;64245;51.282;22.494;2023-04-15T02:29:43;98300.50;;;7.97;100.00
75650;BME280;64245;51.282;22.494;2023-04-15T02:32:09;98301.09;;;7.91;100.00
75650;BME280;64245;51.282;22.494;2023-04-15T02:34:36;98300.66;;;7.96;100.00
75650;BME280;64245;51.282;22.494;2023-04-15T02:37:06;98292.34;;;7.89;100.00
75650;BME280;64245;51.282;22.494;2023-04-15T02:39:32;98297.91;;;7.88;100.00
75650;BME280;64245;51.282;22.494;2023-04-15T02:41:58;98299.34;;;7.82;100.00
75650;BME280;64245;51.282;22.494;2023-04-15T02:44:26;98295.53;;;7.85;100.00
75650;BME280;64245;51.282;22.494;2023-04-15T02:46:52;98300.25;;;7.91;100.00
75650;BME280;64245;51.282;22.494;2023-04-15T02:49:22;98295.38;;;7.86;100.00
75650;BME280;64245;51.282;22.494;2023-04-15T02:51:48;98279.88;;;7.80;100.00
75650;BME280;64245;51.282;22.494;2023-04-15T02:54:16;98299.25;;;7.92;100.00
75650;BME280;64245;51.282;22.494;2023-04-15T02:56:42;98291.69;;;7.87;100.00
75650;BME280;64245;51.282;22.494;2023-04-15T02:59:07;98302.78;;;7.92;100.00
75650;BME280;64245;51.282;22.494;2023-04-15T03:01:33;98297.81;;;7.97;100.00
75650;BME280;64245;51.282;22.494;2023-04-15T03:03:59;98285.69;;;7.93;100.00
75650;BME280;64245;51.282;22.494;2023-04-15T03:06:24;98288.19;;;8.05;100.00
75650;BME280;64245;51.282;22.494;2023-04-15T03:08:50;98289.47;;;8.01;100.00
75650;BME280;64245;51.282;22.494;2023-04-15T03:11:16;98292.75;;;7.94;100.00
75650;BME280;64245;51.282;22.494;2023-04-15T03:13:43;98285.50;;;7.87;100.00
75650;BME280;64245;51.282;22.494;2023-04-15T03:16:08;98293.91;;;7.92;100.00
75650;BME280;64245;51.282;22.494;2023-04-15T03:18:34;98280.72;;;7.98;100.00
75650;BME280;64245;51.282;22.494;2023-04-15T03:21:00;98277.44;;;8.05;100.00
75650;BME280;64245;51.282;22.494;2023-04-15T03:23:26;98281.47;;;8.09;100.00
75650;BME280;64245;51.282;22.494;2023-04-15T03:25:52;98277.75;;;8.02;100.00
75650;BME280;64245;51.282;22.494;2023-04-15T03:28:20;98281.88;;;7.96;100.00
75650;BME280;64245;51.282;22.494;2023-04-15T03:30:45;98284.84;;;7.93;100.00
75650;BME280;64245;51.282;22.494;2023-04-15T03:33:11;98291.91;;;7.94;100.00
75650;BME280;64245;51.282;22.494;2023-04-15T03:35:37;98287.84;;;7.90;100.00
75650;BME280;64245;51.282;22.494;2023-04-15T03:38:03;98285.84;;;7.92;100.00
75650;BME280;64245;51.282;22.494;2023-04-15T03:40:28;98284.72;;;7.94;100.00
75650;BME280;64245;51.282;22.494;2023-04-15T03:42:54;98280.66;;;7.90;100.00
75650;BME280;64245;51.282;22.494;2023-04-15T03:45:19;98297.13;;;7.95;100.00
75650;BME280;64245;51.282;22.494;2023-04-15T03:47:45;98293.19;;;7.90;100.00
75650;BME280;64245;51.282;22.494;2023-04-15T03:50:11;98290.91;;;7.95;100.00
75650;BME280;64245;51.282;22.494;2023-04-15T03:52:37;98291.22;;;7.92;100.00
75650;BME280;64245;51.282;22.494;2023-04-15T03:55:03;98299.09;;;7.93;100.00
75650;BME280;64245;51.282;22.494;2023-04-15T03:57:29;98299.81;;;7.95;100.00
75650;BME280;64245;51.282;22.494;2023-04-15T03:59:54;98280.78;;;7.89;100.00
75650;BME280;64245;51.282;22.494;2023-04-15T04:02:20;98298.50;;;8.00;100.00
75650;BME280;64245;51.282;22.494;2023-04-15T04:04:47;98295.91;;;8.08;100.00
75650;BME280;64245;51.282;22.494;2023-04-15T04:07:17;98292.53;;;8.06;100.00
75650;BME280;64245;51.282;22.494;2023-04-15T04:09:42;98290.22;;;8.11;100.00
75650;BME280;64245;51.282;22.494;2023-04-15T04:12:08;98277.44;;;8.05;100.00
75650;BME280;64245;51.282;22.494;2023-04-15T04:14:34;98286.84;;;8.09;100.00
75650;BME280;64245;51.282;22.494;2023-04-15T04:17:00;98289.63;;;7.99;100.00
75650;BME280;64245;51.282;22.494;2023-04-15T04:19:25;98292.75;;;8.12;100.00
75650;BME280;64245;51.282;22.494;2023-04-15T04:21:51;98291.06;;;8.11;100.00
75650;BME280;64245;51.282;22.494;2023-04-15T04:24:17;98289.72;;;8.07;100.00
75650;BME280;64245;51.282;22.494;2023-04-15T04:26:42;98293.38;;;8.06;100.00
75650;BME280;64245;51.282;22.494;2023-04-15T04:29:08;98293.06;;;8.09;100.00
75650;BME280;64245;51.282;22.494;2023-04-15T04:31:34;98282.13;;;8.03;100.00
75650;BME280;64245;51.282;22.494;2023-04-15T04:33:59;98282.19;;;7.93;100.00
75650;BME280;64245;51.282;22.494;2023-04-15T04:36:25;98288.47;;;8.02;100.00
75650;BME280;64245;51.282;22.494;2023-04-15T04:38:51;98281.44;;;8.01;100.00
75650;BME280;64245;51.282;22.494;2023-04-15T04:41:16;98279.28;;;8.04;100.00
75650;BME280;64245;51.282;22.494;2023-04-15T04:43:42;98280.97;;;8.05;100.00
75650;BME280;64245;51.282;22.494;2023-04-15T04:46:08;98287.03;;;8.07;100.00
75650;BME280;64245;51.282;22.494;2023-04-15T04:48:34;98283.50;;;8.07;100.00
75650;BME280;64245;51.282;22.494;2023-04-15T04:51:00;98282.81;;;8.05;100.00
75650;BME280;64245;51.282;22.494;2023-04-15T04:53:26;98284.50;;;8.06;100.00
75650;BME280;64245;51.282;22.494;2023-04-15T04:55:52;98282.56;;;7.98;100.00
75650;BME280;64245;51.282;22.494;2023-04-15T04:58:18;98283.16;;;8.10;100.00
75650;BME280;64245;51.282;22.494;2023-04-15T05:00:44;98287.19;;;8.06;100.00
75650;BME280;64245;51.282;22.494;2023-04-15T05:03:10;98278.75;;;8.01;100.00
75650;BME280;64245;51.282;22.494;2023-04-15T05:05:36;98275.91;;;8.02;100.00
75650;BME280;64245;51.282;22.494;2023-04-15T05:08:04;98294.28;;;8.15;100.00
75650;BME280;64245;51.282;22.494;2023-04-15T05:10:30;98284.66;;;8.04;100.00
75650;BME280;64245;51.282;22.494;2023-04-15T05:12:56;98292.59;;;8.14;100.00
75650;BME280;64245;51.282;22.494;2023-04-15T05:15:22;98280.66;;;8.08;100.00
75650;BME280;64245;51.282;22.494;2023-04-15T05:17:47;98284.34;;;8.07;100.00
75650;BME280;64245;51.282;22.494;2023-04-15T05:20:13;98298.13;;;8.12;100.00
75650;BME280;64245;51.282;22.494;2023-04-15T05:22:39;98284.84;;;8.11;100.00
75650;BME280;64245;51.282;22.494;2023-04-15T05:25:05;98296.41;;;8.29;100.00
75650;BME280;64245;51.282;22.494;2023-04-15T05:27:30;98294.59;;;8.29;100.00
75650;BME280;64245;51.282;22.494;2023-04-15T05:29:56;98310.94;;;8.36;100.00
75650;BME280;64245;51.282;22.494;2023-04-15T05:32:22;98301.72;;;8.21;100.00
75650;BME280;64245;51.282;22.494;2023-04-15T05:34:47;98303.63;;;8.28;100.00
75650;BME280;64245;51.282;22.494;2023-04-15T05:37:13;98298.59;;;8.25;100.00
75650;BME280;64245;51.282;22.494;2023-04-15T05:39:39;98303.56;;;8.20;100.00
75650;BME280;64245;51.282;22.494;2023-04-15T05:42:04;98316.44;;;8.17;100.00
75650;BME280;64245;51.282;22.494;2023-04-15T05:44:30;98306.00;;;8.14;100.00
75650;BME280;64245;51.282;22.494;2023-04-15T05:46:56;98315.00;;;8.22;100.00
75650;BME280;64245;51.282;22.494;2023-04-15T05:49:22;98304.41;;;8.21;100.00
75650;BME280;64245;51.282;22.494;2023-04-15T05:51:48;98316.13;;;8.20;100.00
75650;BME280;64245;51.282;22.494;2023-04-15T05:54:16;98316.38;;;8.26;100.00
75650;BME280;64245;51.282;22.494;2023-04-15T05:56:41;98306.78;;;8.24;100.00
75650;BME280;64245;51.282;22.494;2023-04-15T05:59:07;98314.84;;;8.24;100.00
75650;BME280;64245;51.282;22.494;2023-04-15T06:01:32;98304.63;;;8.27;100.00
75650;BME280;64245;51.282;22.494;2023-04-15T06:03:58;98307.00;;;8.30;100.00
75650;BME280;64245;51.282;22.494;2023-04-15T06:06:24;98295.56;;;8.28;100.00
75650;BME280;64245;51.282;22.494;2023-04-15T06:08:52;98312.66;;;8.27;100.00
75650;BME280;64245;51.282;22.494;2023-04-15T06:11:19;98313.22;;;8.31;100.00
75650;BME280;64245;51.282;22.494;2023-04-15T06:13:46;98319.41;;;8.31;100.00
75650;BME280;64245;51.282;22.494;2023-04-15T06:16:11;98312.50;;;8.29;100.00
75650;BME280;64245;51.282;22.494;2023-04-15T06:18:38;98321.75;;;8.26;100.00
75650;BME280;64245;51.282;22.494;2023-04-15T06:21:03;98321.75;;;8.26;100.00
75650;BME280;64245;51.282;22.494;2023-04-15T06:23:29;98316.38;;;8.26;100.00
75650;BME280;64245;51.282;22.494;2023-04-15T06:25:54;98320.28;;;8.32;100.00
75650;BME280;64245;51.282;22.494;2023-04-15T06:28:20;98322.97;;;8.32;100.00
75650;BME280;64245;51.282;22.494;2023-04-15T06:30:46;98321.81;;;8.35;100.00
75650;BME280;64245;51.282;22.494;2023-04-15T06:33:12;98331.72;;;8.34;100.00
75650;BME280;64245;51.282;22.494;2023-04-15T06:35:38;98328.44;;;8.40;100.00
75650;BME280;64245;51.282;22.494;2023-04-15T06:38:04;98321.59;;;8.46;100.00
75650;BME280;64245;51.282;22.494;2023-04-15T06:40:29;98319.06;;;8.44;100.00
75650;BME280;64245;51.282;22.494;2023-04-15T06:42:55;98322.91;;;8.42;100.00
75650;BME280;64245;51.282;22.494;2023-04-15T06:45:21;98317.38;;;8.43;100.00
75650;BME280;64245;51.282;22.494;2023-04-15T06:47:47;98322.44;;;8.46;100.00
75650;BME280;64245;51.282;22.494;2023-04-15T06:50:12;98324.09;;;8.47;100.00
75650;BME280;64245;51.282;22.494;2023-04-15T06:52:39;98334.38;;;8.52;100.00
75650;BME280;64245;51.282;22.494;2023-04-15T06:55:05;98342.22;;;8.63;100.00
75650;BME280;64245;51.282;22.494;2023-04-15T06:57:31;98329.63;;;8.63;100.00
75650;BME280;64245;51.282;22.494;2023-04-15T06:59:57;98341.63;;;8.77;100.00
75650;BME280;64245;51.282;22.494;2023-04-15T07:02:22;98335.28;;;8.78;100.00
75650;BME280;64245;51.282;22.494;2023-04-15T07:04:49;98339.66;;;8.79;100.00
75650;BME280;64245;51.282;22.494;2023-04-15T07:07:15;98340.06;;;8.92;100.00
75650;BME280;64245;51.282;22.494;2023-04-15T07:09:42;98350.56;;;9.04;100.00
75650;BME280;64245;51.282;22.494;2023-04-15T07:12:08;98362.50;;;9.09;100.00
75650;BME280;64245;51.282;22.494;2023-04-15T07:14:33;98360.28;;;9.05;100.00
75650;BME280;64245;51.282;22.494;2023-04-15T07:16:59;98354.75;;;9.06;100.00
75650;BME280;64245;51.282;22.494;2023-04-15T07:19:24;98360.13;;;9.06;100.00
75650;BME280;64245;51.282;22.494;2023-04-15T07:21:50;98365.47;;;8.98;100.00
75650;BME280;64245;51.282;22.494;2023-04-15T07:24:16;98366.84;;;9.02;100.00
75650;BME280;64245;51.282;22.494;2023-04-15T07:26:44;98362.81;;;9.06;100.00
75650;BME280;64245;51.282;22.494;2023-04-15T07:29:10;98376.03;;;9.25;100.00
75650;BME280;64245;51.282;22.494;2023-04-15T07:31:36;98361.72;;;9.17;100.00
75650;BME280;64245;51.282;22.494;2023-04-15T07:34:02;98362.75;;;9.24;100.00
75650;BME280;64245;51.282;22.494;2023-04-15T07:36:29;98355.75;;;9.31;100.00
75650;BME280;64245;51.282;22.494;2023-04-15T07:38:55;98373.03;;;9.62;100.00
75650;BME280;64245;51.282;22.494;2023-04-15T07:41:22;98371.47;;;9.52;100.00
75650;BME280;64245;51.282;22.494;2023-04-15T07:43:48;98375.94;;;9.69;100.00
75650;BME280;64245;51.282;22.494;2023-04-15T07:46:15;98366.06;;;9.78;100.00
75650;BME280;64245;51.282;22.494;2023-04-15T07:48:40;98370.81;;;9.92;99.89
75650;BME280;64245;51.282;22.494;2023-04-15T07:51:07;98377.06;;;10.00;100.00
75650;BME280;64245;51.282;22.494;2023-04-15T07:53:32;98373.81;;;9.81;96.42
75650;BME280;64245;51.282;22.494;2023-04-15T07:55:58;98379.72;;;9.92;97.46
75650;BME280;64245;51.282;22.494;2023-04-15T07:58:24;98382.56;;;9.91;97.96
75650;BME280;64245;51.282;22.494;2023-04-15T08:00:50;98387.59;;;9.86;96.34
75650;BME280;64245;51.282;22.494;2023-04-15T08:03:16;98400.94;;;9.95;96.29
75650;BME280;64245;51.282;22.494;2023-04-15T08:05:41;98394.81;;;9.77;95.26
75650;BME280;64245;51.282;22.494;2023-04-15T08:08:07;98398.59;;;9.66;95.41
75650;BME280;64245;51.282;22.494;2023-04-15T08:10:33;98411.50;;;9.63;95.77
75650;BME280;64245;51.282;22.494;2023-04-15T08:12:59;98405.34;;;9.37;94.69
75650;BME280;64245;51.282;22.494;2023-04-15T08:15:25;98397.69;;;9.50;96.01
75650;BME280;64245;51.282;22.494;2023-04-15T08:17:51;98407.22;;;9.44;96.01
75650;BME280;64245;51.282;22.494;2023-04-15T08:20:17;98413.41;;;9.37;97.33
75650;BME280;64245;51.282;22.494;2023-04-15T08:22:43;98396.28;;;9.38;96.11
75650;BME280;64245;51.282;22.494;2023-04-15T08:25:08;98406.09;;;9.55;97.74
75650;BME280;64245;51.282;22.494;2023-04-15T08:27:34;98423.00;;;9.73;99.38
75650;BME280;64245;51.282;22.494;2023-04-15T08:30:01;98414.31;;;9.79;97.00
75650;BME280;64245;51.282;22.494;2023-04-15T08:32:26;98406.56;;;9.76;97.85
75650;BME280;64245;51.282;22.494;2023-04-15T08:34:52;98430.81;;;9.92;97.24
75650;BME280;64245;51.282;22.494;2023-04-15T08:37:18;98410.47;;;9.90;96.33
75650;BME280;64245;51.282;22.494;2023-04-15T08:39:44;98436.69;;;10.22;95.92
75650;BME280;64245;51.282;22.494;2023-04-15T08:42:16;98437.25;;;10.33;96.70
75650;BME280;64245;51.282;22.494;2023-04-15T08:44:45;98439.59;;;10.36;97.34
75650;BME280;64245;51.282;22.494;2023-04-15T08:47:12;98437.75;;;10.37;95.73
75650;BME280;64245;51.282;22.494;2023-04-15T08:49:39;98443.59;;;10.24;94.35
75650;BME280;64245;51.282;22.494;2023-04-15T08:52:05;98439.72;;;10.27;95.61
75650;BME280;64245;51.282;22.494;2023-04-15T08:54:32;98446.47;;;10.31;96.30
75650;BME280;64245;51.282;22.494;2023-04-15T08:56:58;98438.72;;;10.28;92.93
75650;BME280;64245;51.282;22.494;2023-04-15T08:59:24;98444.47;;;10.33;93.91
75650;BME280;64245;51.282;22.494;2023-04-15T09:01:50;98445.47;;;10.32;94.54
75650;BME280;64245;51.282;22.494;2023-04-15T09:04:16;98457.72;;;10.26;93.63
75650;BME280;64245;51.282;22.494;2023-04-15T09:06:42;98460.09;;;10.29;93.68
75650;BME280;64245;51.282;22.494;2023-04-15T09:09:08;98459.06;;;10.22;93.98
75650;BME280;64245;51.282;22.494;2023-04-15T09:11:34;98456.03;;;10.25;92.73
75650;BME280;64245;51.282;22.494;2023-04-15T09:14:00;98464.50;;;10.38;93.06
75650;BME280;64245;51.282;22.494;2023-04-15T09:16:26;98459.97;;;10.39;94.04
75650;BME280;64245;51.282;22.494;2023-04-15T09:18:52;98465.84;;;10.34;92.04
75650;BME280;64245;51.282;22.494;2023-04-15T09:21:18;98452.31;;;10.18;92.51
75650;BME280;64245;51.282;22.494;2023-04-15T09:23:57;98462.75;;;10.21;92.94
75650;BME280;64245;51.282;22.494;2023-04-15T09:26:34;98469.00;;;10.30;92.37
75650;BME280;64245;51.282;22.494;2023-04-15T09:29:04;98467.47;;;10.19;93.53
75650;BME280;64245;51.282;22.494;2023-04-15T09:31:31;98461.41;;;10.25;94.10
75650;BME280;64245;51.282;22.494;2023-04-15T09:33:57;98461.47;;;10.33;94.13
75650;BME280;64245;51.282;22.494;2023-04-15T09:36:23;98467.66;;;10.26;93.61
75650;BME280;64245;51.282;22.494;2023-04-15T09:38:57;98468.41;;;10.52;94.09
75650;BME280;64245;51.282;22.494;2023-04-15T09:41:24;98457.47;;;10.62;94.24
75650;BME280;64245;51.282;22.494;2023-04-15T09:43:51;98476.69;;;10.67;92.78
75650;BME280;64245;51.282;22.494;2023-04-15T09:46:17;98478.22;;;10.86;94.37
75650;BME280;64245;51.282;22.494;2023-04-15T09:48:43;98476.53;;;10.85;93.49
75650;BME280;64245;51.282;22.494;2023-04-15T09:51:08;98472.16;;;10.84;91.52
75650;BME280;64245;51.282;22.494;2023-04-15T09:53:35;98481.06;;;10.68;92.76
75650;BME280;64245;51.282;22.494;2023-04-15T09:56:02;98486.81;;;10.81;91.54
75650;BME280;64245;51.282;22.494;2023-04-15T09:58:31;98480.94;;;10.86;91.57
75650;BME280;64245;51.282;22.494;2023-04-15T10:00:58;98482.81;;;10.93;90.16
75650;BME280;64245;51.282;22.494;2023-04-15T10:03:30;98486.50;;;10.92;90.51
75650;BME280;64245;51.282;22.494;2023-04-15T10:05:58;98493.22;;;10.88;89.51
75650;BME280;64245;51.282;22.494;2023-04-15T10:08:27;98495.25;;;10.94;89.47
75650;BME280;64245;51.282;22.494;2023-04-15T10:10:53;98483.66;;;10.94;90.29
75650;BME280;64245;51.282;22.494;2023-04-15T10:13:24;98482.63;;;11.03;89.02
75650;BME280;64245;51.282;22.494;2023-04-15T10:18:22;98483.47;;;11.44;87.99
75650;BME280;64245;51.282;22.494;2023-04-15T10:20:49;98470.94;;;11.75;86.89
75650;BME280;64245;51.282;22.494;2023-04-15T10:23:16;98474.56;;;12.23;84.04
75650;BME280;64245;51.282;22.494;2023-04-15T10:25:44;98478.13;;;12.86;83.97
75650;BME280;64245;51.282;22.494;2023-04-15T10:28:10;98470.38;;;13.05;84.65
75650;BME280;64245;51.282;22.494;2023-04-15T10:30:36;98457.34;;;13.32;81.05
75650;BME280;64245;51.282;22.494;2023-04-15T10:33:04;98460.66;;;13.57;79.06
75650;BME280;64245;51.282;22.494;2023-04-15T10:35:31;98458.09;;;13.78;80.15
75650;BME280;64245;51.282;22.494;2023-04-15T10:37:57;98443.72;;;13.92;78.09
75650;BME280;64245;51.282;22.494;2023-04-15T10:40:31;98448.88;;;14.02;79.76
75650;BME280;64245;51.282;22.494;2023-04-15T10:43:01;98432.50;;;14.10;77.77
75650;BME280;64245;51.282;22.494;2023-04-15T10:45:35;98441.72;;;14.45;76.64
75650;BME280;64245;51.282;22.494;2023-04-15T10:48:03;98440.50;;;14.62;74.39
75650;BME280;64245;51.282;22.494;2023-04-15T10:50:30;98440.06;;;14.80;75.88
75650;BME280;64245;51.282;22.494;2023-04-15T10:52:57;98440.94;;;15.51;70.12
75650;BME280;64245;51.282;22.494;2023-04-15T10:55:29;98431.84;;;15.37;71.63
75650;BME280;64245;51.282;22.494;2023-04-15T10:58:00;98455.09;;;15.04;70.42
75650;BME280;64245;51.282;22.494;2023-04-15T11:00:30;98452.75;;;14.29;72.01
75650;BME280;64245;51.282;22.494;2023-04-15T11:03:07;98460.22;;;14.12;73.75
75650;BME280;64245;51.282;22.494;2023-04-15T11:05:48;98463.88;;;13.90;69.02
75650;BME280;64245;51.282;22.494;2023-04-15T11:08:15;98471.06;;;14.12;68.93
75650;BME280;64245;51.282;22.494;2023-04-15T11:15:42;98467.91;;;14.23;70.11
75650;BME280;64245;51.282;22.494;2023-04-15T11:18:17;98468.53;;;14.40;69.04
75650;BME280;64245;51.282;22.494;2023-04-15T11:20:54;98476.84;;;14.53;69.46
75650;BME280;64245;51.282;22.494;2023-04-15T11:23:42;98473.31;;;14.89;68.75
75650;BME280;64245;51.282;22.494;2023-04-15T11:26:12;98480.94;;;15.00;66.45
75650;BME280;64245;51.282;22.494;2023-04-15T11:28:42;98470.94;;;15.00;65.69
75650;BME280;64245;51.282;22.494;2023-04-15T11:31:16;98477.72;;;15.11;67.73
75650;BME280;64245;51.282;22.494;2023-04-15T11:33:46;98479.69;;;15.45;64.70
75650;BME280;64245;51.282;22.494;2023-04-15T11:36:17;98471.38;;;15.04;64.11
75650;BME280;64245;51.282;22.494;2023-04-15T11:38:46;98474.34;;;15.30;65.94
75650;BME280;64245;51.282;22.494;2023-04-15T11:41:11;98480.41;;;14.90;66.71
75650;BME280;64245;51.282;22.494;2023-04-15T11:43:37;98477.69;;;14.54;64.60
75650;BME280;64245;51.282;22.494;2023-04-15T11:46:03;98477.88;;;14.08;67.26
75650;BME280;64245;51.282;22.494;2023-04-15T11:48:33;98487.13;;;14.28;68.57
75650;BME280;64245;51.282;22.494;2023-04-15T11:51:01;98481.59;;;14.07;67.50
75650;BME280;64245;51.282;22.494;2023-04-15T11:53:37;98487.41;;;14.33;67.92
75650;BME280;64245;51.282;22.494;2023-04-15T11:56:04;98490.78;;;14.21;66.80
75650;BME280;64245;51.282;22.494;2023-04-15T11:58:30;98470.81;;;14.22;64.58
75650;BME280;64245;51.282;22.494;2023-04-15T12:00:57;98483.63;;;14.42;67.82
75650;BME280;64245;51.282;22.494;2023-04-15T12:06:18;98491.03;;;14.26;67.71
75650;BME280;64245;51.282;22.494;2023-04-15T12:08:58;98497.84;;;14.07;68.00
75650;BME280;64245;51.282;22.494;2023-04-15T12:11:32;98485.44;;;13.83;68.24
75650;BME280;64245;51.282;22.494;2023-04-15T12:14:03;98504.03;;;14.01;65.39
75650;BME280;64245;51.282;22.494;2023-04-15T12:16:29;98502.09;;;13.57;66.59
75650;BME280;64245;51.282;22.494;2023-04-15T12:18:57;98483.28;;;13.93;67.29
75650;BME280;64245;51.282;22.494;2023-04-15T12:21:31;98504.59;;;13.96;69.71
75650;BME280;64245;51.282;22.494;2023-04-15T12:24:01;98494.84;;;13.87;70.33
75650;BME280;64245;51.282;22.494;2023-04-15T12:26:29;98504.88;;;14.01;69.81
75650;BME280;64245;51.282;22.494;2023-04-15T12:29:06;98523.09;;;14.22;69.96
75650;BME280;64245;51.282;22.494;2023-04-15T12:31:34;98508.44;;;14.46;69.26
75650;BME280;64245;51.282;22.494;2023-04-15T12:34:00;98514.69;;;14.46;69.08
75650;BME280;64245;51.282;22.494;2023-04-15T12:36:27;98503.03;;;14.97;68.56
75650;BME280;64245;51.282;22.494;2023-04-15T12:38:53;98514.09;;;15.38;64.50
75650;BME280;64245;51.282;22.494;2023-04-15T12:41:19;98508.63;;;14.95;67.67
75650;BME280;64245;51.282;22.494;2023-04-15T12:43:46;98511.91;;;14.55;66.57
75650;BME280;64245;51.282;22.494;2023-04-15T12:46:14;98502.88;;;15.05;67.01
75650;BME280;64245;51.282;22.494;2023-04-15T12:48:40;98484.41;;;16.96;62.35
75650;BME280;64245;51.282;22.494;2023-04-15T12:51:06;98487.84;;;17.24;61.65
75650;BME280;64245;51.282;22.494;2023-04-15T12:53:32;98497.16;;;16.95;60.87
75650;BME280;64245;51.282;22.494;2023-04-15T12:55:57;98506.72;;;18.18;59.25
75650;BME280;64245;51.282;22.494;2023-04-15T12:58:23;98507.69;;;17.05;59.53
75650;BME280;64245;51.282;22.494;2023-04-15T13:00:49;98504.88;;;16.44;60.66